Nearby METAR Reports

 

EGNR - Hawarden (aut), United Kingdom
Distance from station: ESE 33mi, 53km
Updated: 16/11/2018 07:50
Nearby fog, Mostly cloudy
Nearby fog, Mostly cloudy
 Wind from SSE
Wind: SSE 7 mph , 11 km/h
Temperature: 11°C
Dew Point: 10°C
Humidity: 94%
Barometer: 1023 hPa
Summary: Nearby Fog
Clouds: Mostly cloudy
Visibility: 3 miles , 5 km
Cloud details: Mostly cloudy 640 m
2018/11/16 07:50 EGNR 160750Z 16006KT 5000 VCFG BKN021 11/10 Q1023
EGOV - Valley Raf, United Kingdom
Distance from station: W 33mi, 53km
Updated: 16/11/2018 07:50
Mostly cloudy
Mostly cloudy
 Wind from ESE
Wind: ESE 7 mph , 11 km/h
Temperature: 12°C
Dew Point: 11°C
Humidity: 94%
Barometer: 1021 hPa
Clouds: Mostly cloudy
Visibility: 6 miles , 10 km
Cloud details: Mostly cloudy 853 m
2018/11/16 07:50 EGOV 160750Z 11006KT 9999 BKN028 12/11 Q1021 BLU NOSIG
 
EGGP - Liverpool Airpor, United Kingdom
Distance from station: E 37mi, 59km
Updated: 16/11/2018 07:50
Mostly cloudy
Mostly cloudy
 Wind from SE
Wind: SE 9 mph , 15 km/h
Temperature: 13°C
Dew Point: 11°C
Humidity: 88%
Barometer: 1023 hPa
Clouds: Mostly cloudy
Visibility: 6 miles , 9 km
Cloud details: Mostly cloudy 640 m
2018/11/16 07:50 EGGP 160750Z 13008KT 100V170 9000 BKN021 13/11 Q1023
EGNH - Blackpool Airpor, United Kingdom
Distance from station: NE 44mi, 72km
Updated: 16/11/2018 07:50
Mist, Partly cloudy
Mist, Partly cloudy
 Wind from ESE
Wind: ESE 10 mph , 17 km/h
Temperature: 11°C
Dew Point: 11°C
Humidity: 100%
Barometer: 1023 hPa
Summary: Mist
Clouds: Partly cloudy
Visibility: 2 miles , 4 km
Cloud details: Partly cloudy 914 m
2018/11/16 07:50 EGNH 160750Z 12009KT 4000 BR SCT030 11/11 Q1023
 
EGNO - Wharton, United Kingdom
Distance from station: NE 47mi, 76km
Updated: 16/11/2018 07:50
Mist, Mostly cloudy
Mist, Mostly cloudy
 Wind from ESE
Wind: ESE 6 mph , 9 km/h
Temperature: 12°C
Dew Point: 11°C
Humidity: 94%
Barometer: 1023 hPa
Summary: Mist
Clouds: Mostly cloudy
Visibility: 2 miles , 4 km
Cloud details: Partly cloudy 274 m
Mostly cloudy 823 m
2018/11/16 07:50 EGNO 160750Z 11005KT 4000 BR SCT009 BKN027 12/11 Q1023
EGOS - Shawbury Raf, United Kingdom
Distance from station: SE 56mi, 89km
Updated: 16/11/2018 07:50
Mist, Mostly cloudy
Mist, Mostly cloudy
 Wind from ESE
Wind: ESE 7 mph , 11 km/h
Temperature: 12°C
Dew Point: 11°C
Humidity: 94%
Barometer: 1023 hPa
Summary: Mist
Clouds: Mostly cloudy
Visibility: 3 miles , 4 km
Cloud details: Mostly cloudy 610 m
2018/11/16 07:50 EGOS 160750Z 12006KT 4200 BR BKN020 12/11 Q1023 GRN
 
EGCC - Manchester Intl, United Kingdom
Distance from station: E 61mi, 98km
Updated: 16/11/2018 07:50
Overcast
Overcast
 Wind from varies
Wind: varies 3 mph , 6 km/h
Temperature: 12°C
Dew Point: 10°C
Humidity: 88%
Barometer: 1024 hPa
Clouds: Overcast
Visibility: 4 miles , 7 km
Cloud details: Overcast 640 m
2018/11/16 07:50 EGCC 160750Z AUTO VRB03KT 7000 OVC021 12/10 Q1024 TEMPO BKN012
EGNS - Isle Of Man/Rona, United Kingdom
Distance from station: NW 66mi, 107km
Updated: 16/11/2018 07:50
Mostly cloudy
Mostly cloudy
 Wind from SSE
Wind: SSE 7 mph , 11 km/h
Temperature: 12°C
Dew Point: 11°C
Humidity: 94%
Barometer: 1021 hPa
Clouds: Mostly cloudy
Visibility: 6 miles , 10 km
Cloud details: Few Clouds 213 m
Mostly cloudy 427 m
Mostly cloudy 1067 m
2018/11/16 07:50 EGNS 160750Z 15006KT 9999 FEW007 BKN014 BKN035 12/11 Q1021 NOSIG
 
EGNM - Leeds And Bradfo, United Kingdom
Distance from station: ENE 95mi, 153km
Updated: 16/11/2018 07:50
Fog, Mostly cloudy
Fog, Mostly cloudy
 Wind from SSE
Wind: SSE 7 mph , 11 km/h
Temperature: 11°C
Dew Point: 11°C
Humidity: 100%
Barometer: 1024 hPa
Summary: Fog
Clouds: Mostly cloudy
Visibility: 0 mile , 1 km
Cloud details: Few Clouds 0 m
Partly cloudy 30 m
Mostly cloudy 61 m
2018/11/16 07:50 EGNM 160750Z 15006KT 110V190 0500 R14/P1500 FG FEW000 SCT001 BKN002 11/11 Q1024
EGBB - Birmingham Airpo, United Kingdom
Distance from station: ESE 100mi, 161km
Updated: 16/11/2018 07:50
Mist, Overcast
Mist, Overcast
 Wind from SE
Wind: SE 6 mph , 9 km/h
Temperature: 11°C
Dew Point: 11°C
Humidity: 100%
Barometer: 1024 hPa
Summary: Mist
Clouds: Overcast
Visibility: 1 mile , 2 km
Cloud details: Overcast 122 m
2018/11/16 07:50 EGBB 160750Z 14005KT 2000 BR OVC004 11/11 Q1024